sensor_id;sensor_type;location;lat;lon;timestamp;temperature;humidity
42755;DHT22;28407;51.830;5.684;2023-03-20T00:01:16;12.50;76.30
42755;DHT22;28407;51.830;5.684;2023-03-20T00:03:17;12.50;76.10
42755;DHT22;28407;51.830;5.684;2023-03-20T00:05:20;12.50;76.20
42755;DHT22;28407;51.830;5.684;2023-03-20T00:07:21;12.50;76.20
42755;DHT22;28407;51.830;5.684;2023-03-20T00:09:21;12.50;76.20
42755;DHT22;28407;51.830;5.684;2023-03-20T00:11:31;12.50;76.20
42755;DHT22;28407;51.830;5.684;2023-03-20T00:13:32;12.40;76.20
42755;DHT22;28407;51.830;5.684;2023-03-20T00:15:37;12.40;76.30
42755;DHT22;28407;51.830;5.684;2023-03-20T00:17:38;12.40;76.30
42755;DHT22;28407;51.830;5.684;2023-03-20T00:19:39;12.40;76.40
42755;DHT22;28407;51.830;5.684;2023-03-20T00:21:40;12.40;76.40
42755;DHT22;28407;51.830;5.684;2023-03-20T00:23:40;12.40;76.40
42755;DHT22;28407;51.830;5.684;2023-03-20T00:25:43;12.30;76.40
42755;DHT22;28407;51.830;5.684;2023-03-20T00:27:44;12.30;76.40
42755;DHT22;28407;51.830;5.684;2023-03-20T00:29:45;12.30;76.40
42755;DHT22;28407;51.830;5.684;2023-03-20T00:31:47;12.30;76.40
42755;DHT22;28407;51.830;5.684;2023-03-20T00:33:48;12.30;76.40
42755;DHT22;28407;51.830;5.684;2023-03-20T00:35:49;12.30;76.40
42755;DHT22;28407;51.830;5.684;2023-03-20T00:37:51;12.30;76.40
42755;DHT22;28407;51.830;5.684;2023-03-20T00:39:52;12.30;76.40
42755;DHT22;28407;51.830;5.684;2023-03-20T00:42:03;12.30;76.40
42755;DHT22;28407;51.830;5.684;2023-03-20T00:44:21;12.30;76.40
42755;DHT22;28407;51.830;5.684;2023-03-20T00:46:23;12.20;76.30
42755;DHT22;28407;51.830;5.684;2023-03-20T00:48:24;12.20;76.30
42755;DHT22;28407;51.830;5.684;2023-03-20T00:50:28;12.20;76.40
42755;DHT22;28407;51.830;5.684;2023-03-20T00:52:31;12.20;76.30
42755;DHT22;28407;51.830;5.684;2023-03-20T00:54:32;12.20;76.30
42755;DHT22;28407;51.830;5.684;2023-03-20T00:56:40;12.20;76.30
42755;DHT22;28407;51.830;5.684;2023-03-20T00:58:42;12.20;76.30
42755;DHT22;28407;51.830;5.684;2023-03-20T01:00:43;12.20;76.30
42755;DHT22;28407;51.830;5.684;2023-03-20T01:02:44;12.20;76.20
42755;DHT22;28407;51.830;5.684;2023-03-20T01:04:45;12.20;76.20
42755;DHT22;28407;51.830;5.684;2023-03-20T01:06:48;12.20;76.20
42755;DHT22;28407;51.830;5.684;2023-03-20T01:08:48;12.20;76.20
42755;DHT22;28407;51.830;5.684;2023-03-20T01:10:54;12.10;76.30
42755;DHT22;28407;51.830;5.684;2023-03-20T01:12:58;12.20;76.40
42755;DHT22;28407;51.830;5.684;2023-03-20T01:14:59;12.10;76.30
42755;DHT22;28407;51.830;5.684;2023-03-20T01:17:00;12.10;76.30
42755;DHT22;28407;51.830;5.684;2023-03-20T01:19:01;12.10;76.20
42755;DHT22;28407;51.830;5.684;2023-03-20T01:21:02;12.10;76.20
42755;DHT22;28407;51.830;5.684;2023-03-20T01:23:02;12.10;76.20
42755;DHT22;28407;51.830;5.684;2023-03-20T01:25:03;12.10;76.20
42755;DHT22;28407;51.830;5.684;2023-03-20T01:27:11;12.10;76.20
42755;DHT22;28407;51.830;5.684;2023-03-20T01:29:21;12.10;76.10
42755;DHT22;28407;51.830;5.684;2023-03-20T01:31:22;12.10;76.10
42755;DHT22;28407;51.830;5.684;2023-03-20T01:33:23;12.10;76.10
42755;DHT22;28407;51.830;5.684;2023-03-20T01:35:28;12.10;76.10
42755;DHT22;28407;51.830;5.684;2023-03-20T01:37:33;12.10;76.00
42755;DHT22;28407;51.830;5.684;2023-03-20T01:39:37;12.00;76.00
42755;DHT22;28407;51.830;5.684;2023-03-20T01:41:38;12.00;76.00
42755;DHT22;28407;51.830;5.684;2023-03-20T01:43:41;12.00;76.00
42755;DHT22;28407;51.830;5.684;2023-03-20T01:45:51;12.00;76.00
42755;DHT22;28407;51.830;5.684;2023-03-20T01:47:54;12.00;76.10
42755;DHT22;28407;51.830;5.684;2023-03-20T01:52:26;12.00;76.10
42755;DHT22;28407;51.830;5.684;2023-03-20T01:54:29;12.00;76.00
42755;DHT22;28407;51.830;5.684;2023-03-20T01:56:41;12.00;76.00
42755;DHT22;28407;51.830;5.684;2023-03-20T01:58:47;12.00;76.00
42755;DHT22;28407;51.830;5.684;2023-03-20T02:00:49;12.00;76.00
42755;DHT22;28407;51.830;5.684;2023-03-20T02:02:52;12.00;76.00
42755;DHT22;28407;51.830;5.684;2023-03-20T02:05:26;12.00;75.90
42755;DHT22;28407;51.830;5.684;2023-03-20T02:07:28;11.90;75.80
42755;DHT22;28407;51.830;5.684;2023-03-20T02:09:33;11.90;75.90
42755;DHT22;28407;51.830;5.684;2023-03-20T02:11:36;11.90;75.90
42755;DHT22;28407;51.830;5.684;2023-03-20T02:13:37;12.00;75.90
42755;DHT22;28407;51.830;5.684;2023-03-20T02:18:10;11.90;75.70
42755;DHT22;28407;51.830;5.684;2023-03-20T02:20:36;11.90;75.70
42755;DHT22;28407;51.830;5.684;2023-03-20T02:27:40;11.90;75.60
42755;DHT22;28407;51.830;5.684;2023-03-20T02:30:09;11.90;75.60
42755;DHT22;28407;51.830;5.684;2023-03-20T02:41:27;11.80;75.60
42755;DHT22;28407;51.830;5.684;2023-03-20T02:43:44;11.80;75.60
42755;DHT22;28407;51.830;5.684;2023-03-20T02:48:24;11.80;75.60
42755;DHT22;28407;51.830;5.684;2023-03-20T02:50:49;11.70;75.50
42755;DHT22;28407;51.830;5.684;2023-03-20T02:53:04;11.70;75.60
42755;DHT22;28407;51.830;5.684;2023-03-20T02:57:33;11.70;75.60
42755;DHT22;28407;51.830;5.684;2023-03-20T03:00:04;11.60;75.60
42755;DHT22;28407;51.830;5.684;2023-03-20T03:02:16;11.60;75.60
42755;DHT22;28407;51.830;5.684;2023-03-20T03:04:22;11.60;75.70
42755;DHT22;28407;51.830;5.684;2023-03-20T03:06:33;11.50;75.70
42755;DHT22;28407;51.830;5.684;2023-03-20T03:08:40;11.50;75.80
42755;DHT22;28407;51.830;5.684;2023-03-20T03:10:59;11.50;75.70
42755;DHT22;28407;51.830;5.684;2023-03-20T03:13:04;11.50;75.70
42755;DHT22;28407;51.830;5.684;2023-03-20T03:15:16;11.40;75.60
42755;DHT22;28407;51.830;5.684;2023-03-20T03:17:18;11.50;75.70
42755;DHT22;28407;51.830;5.684;2023-03-20T03:19:23;11.40;75.60
42755;DHT22;28407;51.830;5.684;2023-03-20T03:21:26;11.40;75.60
42755;DHT22;28407;51.830;5.684;2023-03-20T03:23:39;11.30;75.60
42755;DHT22;28407;51.830;5.684;2023-03-20T03:25:40;11.30;75.60
42755;DHT22;28407;51.830;5.684;2023-03-20T03:27:43;11.30;75.70
42755;DHT22;28407;51.830;5.684;2023-03-20T03:29:50;11.30;75.70
42755;DHT22;28407;51.830;5.684;2023-03-20T03:31:54;11.30;75.80
42755;DHT22;28407;51.830;5.684;2023-03-20T03:33:57;11.20;75.80
42755;DHT22;28407;51.830;5.684;2023-03-20T03:36:12;11.20;75.80
42755;DHT22;28407;51.830;5.684;2023-03-20T03:40:49;11.20;75.80
42755;DHT22;28407;51.830;5.684;2023-03-20T03:42:57;11.10;75.80
42755;DHT22;28407;51.830;5.684;2023-03-20T03:47:20;11.10;76.00
42755;DHT22;28407;51.830;5.684;2023-03-20T03:49:32;11.00;76.10
42755;DHT22;28407;51.830;5.684;2023-03-20T03:51:38;11.00;76.20
42755;DHT22;28407;51.830;5.684;2023-03-20T03:53:49;11.00;76.20
42755;DHT22;28407;51.830;5.684;2023-03-20T03:55:54;11.00;76.20
42755;DHT22;28407;51.830;5.684;2023-03-20T03:58:07;11.00;76.20
42755;DHT22;28407;51.830;5.684;2023-03-20T04:00:10;11.00;76.20
42755;DHT22;28407;51.830;5.684;2023-03-20T04:02:19;11.00;76.20
42755;DHT22;28407;51.830;5.684;2023-03-20T04:04:21;11.00;76.10
42755;DHT22;28407;51.830;5.684;2023-03-20T04:06:24;10.90;76.10
42755;DHT22;28407;51.830;5.684;2023-03-20T04:08:26;10.90;76.20
42755;DHT22;28407;51.830;5.684;2023-03-20T04:10:27;10.90;76.10
42755;DHT22;28407;51.830;5.684;2023-03-20T04:14:31;10.90;76.20
42755;DHT22;28407;51.830;5.684;2023-03-20T04:16:32;10.90;76.30
42755;DHT22;28407;51.830;5.684;2023-03-20T04:18:33;10.80;76.20
42755;DHT22;28407;51.830;5.684;2023-03-20T04:20:34;10.80;76.30
42755;DHT22;28407;51.830;5.684;2023-03-20T04:22:34;10.80;76.30
42755;DHT22;28407;51.830;5.684;2023-03-20T04:24:40;10.70;76.30
42755;DHT22;28407;51.830;5.684;2023-03-20T04:26:41;10.70;76.50
42755;DHT22;28407;51.830;5.684;2023-03-20T04:28:42;10.70;76.50
42755;DHT22;28407;51.830;5.684;2023-03-20T04:30:57;10.60;76.60
42755;DHT22;28407;51.830;5.684;2023-03-20T04:33:36;10.60;76.60
42755;DHT22;28407;51.830;5.684;2023-03-20T04:35:57;10.60;76.60
42755;DHT22;28407;51.830;5.684;2023-03-20T04:37:58;10.60;76.60
42755;DHT22;28407;51.830;5.684;2023-03-20T04:40:00;10.50;76.50
42755;DHT22;28407;51.830;5.684;2023-03-20T04:42:01;10.50;76.50
42755;DHT22;28407;51.830;5.684;2023-03-20T04:44:02;10.50;76.50
42755;DHT22;28407;51.830;5.684;2023-03-20T04:46:05;10.50;76.50
42755;DHT22;28407;51.830;5.684;2023-03-20T04:48:06;10.50;76.50
42755;DHT22;28407;51.830;5.684;2023-03-20T04:50:08;10.50;76.50
42755;DHT22;28407;51.830;5.684;2023-03-20T04:52:10;10.40;76.50
42755;DHT22;28407;51.830;5.684;2023-03-20T04:54:14;10.40;76.60
42755;DHT22;28407;51.830;5.684;2023-03-20T04:56:16;10.40;76.50
42755;DHT22;28407;51.830;5.684;2023-03-20T04:58:17;10.40;76.50
42755;DHT22;28407;51.830;5.684;2023-03-20T05:00:18;10.40;76.50
42755;DHT22;28407;51.830;5.684;2023-03-20T05:02:19;10.40;76.50
42755;DHT22;28407;51.830;5.684;2023-03-20T05:04:20;10.40;76.50
42755;DHT22;28407;51.830;5.684;2023-03-20T05:06:21;10.40;76.40
42755;DHT22;28407;51.830;5.684;2023-03-20T05:08:22;10.40;76.50
42755;DHT22;28407;51.830;5.684;2023-03-20T05:10:28;10.40;76.50
42755;DHT22;28407;51.830;5.684;2023-03-20T05:12:34;10.40;76.50
42755;DHT22;28407;51.830;5.684;2023-03-20T05:14:43;10.30;76.50
42755;DHT22;28407;51.830;5.684;2023-03-20T05:17:06;10.30;76.50
42755;DHT22;28407;51.830;5.684;2023-03-20T05:19:18;10.30;76.50
42755;DHT22;28407;51.830;5.684;2023-03-20T05:21:24;10.30;76.40
42755;DHT22;28407;51.830;5.684;2023-03-20T05:23:44;10.30;76.50
42755;DHT22;28407;51.830;5.684;2023-03-20T05:25:54;10.30;76.30
42755;DHT22;28407;51.830;5.684;2023-03-20T05:27:54;10.30;76.40
42755;DHT22;28407;51.830;5.684;2023-03-20T05:29:58;10.30;76.40
42755;DHT22;28407;51.830;5.684;2023-03-20T05:32:17;10.30;76.40
42755;DHT22;28407;51.830;5.684;2023-03-20T05:34:38;10.30;76.30
42755;DHT22;28407;51.830;5.684;2023-03-20T05:36:50;10.30;76.30
42755;DHT22;28407;51.830;5.684;2023-03-20T05:38:57;10.30;76.40
42755;DHT22;28407;51.830;5.684;2023-03-20T05:41:16;10.30;76.30
42755;DHT22;28407;51.830;5.684;2023-03-20T05:43:40;10.30;76.30
42755;DHT22;28407;51.830;5.684;2023-03-20T05:46:01;10.30;76.20
42755;DHT22;28407;51.830;5.684;2023-03-20T05:48:20;10.30;76.20
42755;DHT22;28407;51.830;5.684;2023-03-20T05:50:39;10.30;76.20
42755;DHT22;28407;51.830;5.684;2023-03-20T05:53:09;10.30;76.30
42755;DHT22;28407;51.830;5.684;2023-03-20T05:55:22;10.30;76.30
42755;DHT22;28407;51.830;5.684;2023-03-20T05:57:43;10.30;76.20
42755;DHT22;28407;51.830;5.684;2023-03-20T05:59:59;10.30;76.20
42755;DHT22;28407;51.830;5.684;2023-03-20T06:02:18;10.30;76.10
42755;DHT22;28407;51.830;5.684;2023-03-20T06:04:29;10.30;76.10
42755;DHT22;28407;51.830;5.684;2023-03-20T06:06:49;10.30;76.20
42755;DHT22;28407;51.830;5.684;2023-03-20T06:08:50;10.30;76.20
42755;DHT22;28407;51.830;5.684;2023-03-20T06:10:51;10.30;76.20
42755;DHT22;28407;51.830;5.684;2023-03-20T06:12:52;10.30;76.10
42755;DHT22;28407;51.830;5.684;2023-03-20T06:14:58;10.30;76.10
42755;DHT22;28407;51.830;5.684;2023-03-20T06:16:59;10.40;76.10
42755;DHT22;28407;51.830;5.684;2023-03-20T06:19:01;10.40;76.10
42755;DHT22;28407;51.830;5.684;2023-03-20T06:21:02;10.40;76.10
42755;DHT22;28407;51.830;5.684;2023-03-20T06:23:05;10.30;76.10
42755;DHT22;28407;51.830;5.684;2023-03-20T06:25:06;10.30;76.10
42755;DHT22;28407;51.830;5.684;2023-03-20T06:27:14;10.30;76.10
42755;DHT22;28407;51.830;5.684;2023-03-20T06:29:15;10.30;76.10
42755;DHT22;28407;51.830;5.684;2023-03-20T06:31:17;10.30;76.20
42755;DHT22;28407;51.830;5.684;2023-03-20T06:33:17;10.30;76.30
42755;DHT22;28407;51.830;5.684;2023-03-20T06:35:38;10.30;76.30
42755;DHT22;28407;51.830;5.684;2023-03-20T06:37:39;10.30;76.30
42755;DHT22;28407;51.830;5.684;2023-03-20T06:39:46;10.20;76.20
42755;DHT22;28407;51.830;5.684;2023-03-20T06:41:47;10.20;76.30
42755;DHT22;28407;51.830;5.684;2023-03-20T06:43:48;10.20;76.30
42755;DHT22;28407;51.830;5.684;2023-03-20T06:45:50;10.20;76.40
42755;DHT22;28407;51.830;5.684;2023-03-20T06:47:55;10.20;76.50
42755;DHT22;28407;51.830;5.684;2023-03-20T06:49:55;10.20;76.50
42755;DHT22;28407;51.830;5.684;2023-03-20T06:51:56;10.20;76.40
42755;DHT22;28407;51.830;5.684;2023-03-20T06:53:59;10.30;76.40
42755;DHT22;28407;51.830;5.684;2023-03-20T06:56:01;10.20;76.30
42755;DHT22;28407;51.830;5.684;2023-03-20T06:58:01;10.30;76.30
42755;DHT22;28407;51.830;5.684;2023-03-20T07:00:04;10.30;76.30
42755;DHT22;28407;51.830;5.684;2023-03-20T07:02:05;10.30;76.20
42755;DHT22;28407;51.830;5.684;2023-03-20T07:04:07;10.30;76.30
42755;DHT22;28407;51.830;5.684;2023-03-20T07:06:14;10.20;76.20
42755;DHT22;28407;51.830;5.684;2023-03-20T07:08:16;10.20;76.20
42755;DHT22;28407;51.830;5.684;2023-03-20T07:10:16;10.30;76.30
42755;DHT22;28407;51.830;5.684;2023-03-20T07:12:22;10.30;76.30
42755;DHT22;28407;51.830;5.684;2023-03-20T07:14:28;10.30;76.20
42755;DHT22;28407;51.830;5.684;2023-03-20T07:16:32;10.30;76.10
42755;DHT22;28407;51.830;5.684;2023-03-20T07:18:33;10.20;76.10
42755;DHT22;28407;51.830;5.684;2023-03-20T07:20:33;10.30;76.30
42755;DHT22;28407;51.830;5.684;2023-03-20T07:22:35;10.30;76.30
42755;DHT22;28407;51.830;5.684;2023-03-20T07:24:47;10.30;76.20
42755;DHT22;28407;51.830;5.684;2023-03-20T07:26:48;10.40;76.20
42755;DHT22;28407;51.830;5.684;2023-03-20T07:28:49;10.30;76.10
42755;DHT22;28407;51.830;5.684;2023-03-20T07:30:54;10.40;76.10
42755;DHT22;28407;51.830;5.684;2023-03-20T07:32:56;10.40;76.20
42755;DHT22;28407;51.830;5.684;2023-03-20T07:35:02;10.30;76.10
42755;DHT22;28407;51.830;5.684;2023-03-20T07:37:03;10.30;76.10
42755;DHT22;28407;51.830;5.684;2023-03-20T07:39:06;10.30;76.20
42755;DHT22;28407;51.830;5.684;2023-03-20T07:41:08;10.40;76.20
42755;DHT22;28407;51.830;5.684;2023-03-20T07:43:13;10.30;76.10
42755;DHT22;28407;51.830;5.684;2023-03-20T07:45:33;10.30;76.00
42755;DHT22;28407;51.830;5.684;2023-03-20T07:47:34;10.30;76.00
42755;DHT22;28407;51.830;5.684;2023-03-20T07:49:37;10.40;76.10
42755;DHT22;28407;51.830;5.684;2023-03-20T07:51:38;10.40;76.10
42755;DHT22;28407;51.830;5.684;2023-03-20T07:53:39;10.40;76.10
42755;DHT22;28407;51.830;5.684;2023-03-20T07:55:40;10.40;76.00
42755;DHT22;28407;51.830;5.684;2023-03-20T07:57:43;10.40;75.90
42755;DHT22;28407;51.830;5.684;2023-03-20T07:59:45;10.50;76.00
42755;DHT22;28407;51.830;5.684;2023-03-20T08:01:46;10.40;75.80
42755;DHT22;28407;51.830;5.684;2023-03-20T08:03:47;10.50;75.80
42755;DHT22;28407;51.830;5.684;2023-03-20T08:05:47;10.50;75.80
42755;DHT22;28407;51.830;5.684;2023-03-20T08:07:48;10.40;75.70
42755;DHT22;28407;51.830;5.684;2023-03-20T08:09:49;10.50;75.80
42755;DHT22;28407;51.830;5.684;2023-03-20T08:11:49;10.40;75.70
42755;DHT22;28407;51.830;5.684;2023-03-20T08:13:50;10.50;75.70
42755;DHT22;28407;51.830;5.684;2023-03-20T08:15:51;10.50;75.70
42755;DHT22;28407;51.830;5.684;2023-03-20T08:17:51;10.50;75.70
42755;DHT22;28407;51.830;5.684;2023-03-20T08:19:52;10.50;75.60
42755;DHT22;28407;51.830;5.684;2023-03-20T08:21:53;10.50;75.60
42755;DHT22;28407;51.830;5.684;2023-03-20T08:23:53;10.50;75.50
42755;DHT22;28407;51.830;5.684;2023-03-20T08:25:55;10.50;75.60
42755;DHT22;28407;51.830;5.684;2023-03-20T08:27:56;10.50;75.50
42755;DHT22;28407;51.830;5.684;2023-03-20T08:29:56;10.60;75.50
42755;DHT22;28407;51.830;5.684;2023-03-20T08:31:57;10.60;75.50
42755;DHT22;28407;51.830;5.684;2023-03-20T08:33:58;10.60;75.40
42755;DHT22;28407;51.830;5.684;2023-03-20T08:35:58;10.60;75.30
42755;DHT22;28407;51.830;5.684;2023-03-20T08:38:00;10.60;75.20
42755;DHT22;28407;51.830;5.684;2023-03-20T08:40:01;10.60;75.20
42755;DHT22;28407;51.830;5.684;2023-03-20T08:42:01;10.60;75.20
42755;DHT22;28407;51.830;5.684;2023-03-20T08:44:02;10.60;75.20
42755;DHT22;28407;51.830;5.684;2023-03-20T08:46:03;10.70;75.20
42755;DHT22;28407;51.830;5.684;2023-03-20T08:48:03;10.70;75.20
42755;DHT22;28407;51.830;5.684;2023-03-20T08:50:05;10.70;75.20
42755;DHT22;28407;51.830;5.684;2023-03-20T08:52:06;10.80;75.10
42755;DHT22;28407;51.830;5.684;2023-03-20T08:54:07;10.80;75.70
42755;DHT22;28407;51.830;5.684;2023-03-20T08:56:08;10.80;75.00
42755;DHT22;28407;51.830;5.684;2023-03-20T08:58:09;10.80;74.80
42755;DHT22;28407;51.830;5.684;2023-03-20T09:00:12;10.80;74.80
42755;DHT22;28407;51.830;5.684;2023-03-20T09:02:13;10.80;74.80
42755;DHT22;28407;51.830;5.684;2023-03-20T09:04:14;10.80;74.70
42755;DHT22;28407;51.830;5.684;2023-03-20T09:06:15;10.80;74.70
42755;DHT22;28407;51.830;5.684;2023-03-20T09:08:16;10.80;74.60
42755;DHT22;28407;51.830;5.684;2023-03-20T09:10:17;10.80;74.60
42755;DHT22;28407;51.830;5.684;2023-03-20T09:12:18;10.80;74.50
42755;DHT22;28407;51.830;5.684;2023-03-20T09:14:18;10.90;74.60
42755;DHT22;28407;51.830;5.684;2023-03-20T09:16:19;10.80;74.50
42755;DHT22;28407;51.830;5.684;2023-03-20T09:18:20;10.90;74.50
42755;DHT22;28407;51.830;5.684;2023-03-20T09:20:21;10.90;74.40
42755;DHT22;28407;51.830;5.684;2023-03-20T09:22:22;10.90;74.40
42755;DHT22;28407;51.830;5.684;2023-03-20T09:24:23;10.90;74.50
42755;DHT22;28407;51.830;5.684;2023-03-20T09:26:23;10.90;74.50
42755;DHT22;28407;51.830;5.684;2023-03-20T09:28:24;10.90;74.50
42755;DHT22;28407;51.830;5.684;2023-03-20T09:30:26;10.90;74.50
42755;DHT22;28407;51.830;5.684;2023-03-20T09:32:27;10.90;74.60
42755;DHT22;28407;51.830;5.684;2023-03-20T09:34:27;10.90;74.80
42755;DHT22;28407;51.830;5.684;2023-03-20T09:36:29;10.90;74.90
42755;DHT22;28407;51.830;5.684;2023-03-20T09:38:30;10.90;75.00
42755;DHT22;28407;51.830;5.684;2023-03-20T09:45:41;10.90;75.20
42755;DHT22;28407;51.830;5.684;2023-03-20T09:52:27;10.80;75.30
42755;DHT22;28407;51.830;5.684;2023-03-20T09:54:33;10.80;75.40
42755;DHT22;28407;51.830;5.684;2023-03-20T09:56:36;10.80;75.50
42755;DHT22;28407;51.830;5.684;2023-03-20T09:58:37;10.80;75.50
42755;DHT22;28407;51.830;5.684;2023-03-20T10:00:42;10.90;75.60
42755;DHT22;28407;51.830;5.684;2023-03-20T10:02:53;10.90;75.60
42755;DHT22;28407;51.830;5.684;2023-03-20T10:04:56;10.90;75.70
42755;DHT22;28407;51.830;5.684;2023-03-20T10:06:57;10.90;75.70
42755;DHT22;28407;51.830;5.684;2023-03-20T10:08:58;10.80;75.80
42755;DHT22;28407;51.830;5.684;2023-03-20T10:11:03;10.90;76.50
42755;DHT22;28407;51.830;5.684;2023-03-20T10:15:47;10.90;75.80
42755;DHT22;28407;51.830;5.684;2023-03-20T10:22:38;11.00;75.80
42755;DHT22;28407;51.830;5.684;2023-03-20T10:27:15;11.00;75.90
42755;DHT22;28407;51.830;5.684;2023-03-20T10:39:08;11.00;75.80
42755;DHT22;28407;51.830;5.684;2023-03-20T10:41:16;11.00;75.70
42755;DHT22;28407;51.830;5.684;2023-03-20T10:43:30;11.00;75.60
42755;DHT22;28407;51.830;5.684;2023-03-20T10:47:55;11.00;75.70
42755;DHT22;28407;51.830;5.684;2023-03-20T10:49:57;11.00;75.70
42755;DHT22;28407;51.830;5.684;2023-03-20T10:52:04;11.00;75.80
42755;DHT22;28407;51.830;5.684;2023-03-20T10:54:17;11.00;75.80
42755;DHT22;28407;51.830;5.684;2023-03-20T10:58:34;11.00;75.80
42755;DHT22;28407;51.830;5.684;2023-03-20T11:00:36;11.00;75.80
42755;DHT22;28407;51.830;5.684;2023-03-20T11:02:37;11.00;75.80
42755;DHT22;28407;51.830;5.684;2023-03-20T11:04:38;11.00;75.80
42755;DHT22;28407;51.830;5.684;2023-03-20T11:07:00;11.10;75.80
42755;DHT22;28407;51.830;5.684;2023-03-20T11:09:11;11.00;75.80
42755;DHT22;28407;51.830;5.684;2023-03-20T11:11:27;11.00;75.80
42755;DHT22;28407;51.830;5.684;2023-03-20T11:13:35;11.10;75.90
42755;DHT22;28407;51.830;5.684;2023-03-20T11:15:37;11.10;75.90
42755;DHT22;28407;51.830;5.684;2023-03-20T11:17:38;11.00;75.90
42755;DHT22;28407;51.830;5.684;2023-03-20T11:19:40;11.00;76.00
42755;DHT22;28407;51.830;5.684;2023-03-20T11:21:44;11.00;76.10
42755;DHT22;28407;51.830;5.684;2023-03-20T11:23:46;11.00;76.00
42755;DHT22;28407;51.830;5.684;2023-03-20T11:26:53;11.00;76.00
42755;DHT22;28407;51.830;5.684;2023-03-20T11:28:50;11.10;76.20
42755;DHT22;28407;51.830;5.684;2023-03-20T11:33:14;11.10;76.10
42755;DHT22;28407;51.830;5.684;2023-03-20T11:35:29;11.10;76.10
42755;DHT22;28407;51.830;5.684;2023-03-20T11:37:34;11.10;76.00
42755;DHT22;28407;51.830;5.684;2023-03-20T11:39:35;11.10;76.00
42755;DHT22;28407;51.830;5.684;2023-03-20T11:41:56;11.10;76.10
42755;DHT22;28407;51.830;5.684;2023-03-20T11:43:57;11.10;76.10
42755;DHT22;28407;51.830;5.684;2023-03-20T11:45:59;11.10;76.00
42755;DHT22;28407;51.830;5.684;2023-03-20T11:48:01;11.10;76.00
42755;DHT22;28407;51.830;5.684;2023-03-20T11:50:05;11.10;76.10
42755;DHT22;28407;51.830;5.684;2023-03-20T11:52:14;11.20;76.20
42755;DHT22;28407;51.830;5.684;2023-03-20T11:54:19;11.20;76.20
42755;DHT22;28407;51.830;5.684;2023-03-20T11:56:23;11.20;76.30
42755;DHT22;28407;51.830;5.684;2023-03-20T11:58:25;11.20;76.20
42755;DHT22;28407;51.830;5.684;2023-03-20T12:00:40;11.30;76.30
42755;DHT22;28407;51.830;5.684;2023-03-20T12:02:42;11.30;76.30
42755;DHT22;28407;51.830;5.684;2023-03-20T12:04:44;11.30;76.20
42755;DHT22;28407;51.830;5.684;2023-03-20T12:07:07;11.30;76.10
42755;DHT22;28407;51.830;5.684;2023-03-20T12:14:47;11.30;76.10
42755;DHT22;28407;51.830;5.684;2023-03-20T12:16:46;11.40;76.00
42755;DHT22;28407;51.830;5.684;2023-03-20T12:18:56;11.40;76.00
42755;DHT22;28407;51.830;5.684;2023-03-20T12:23:10;11.40;75.90
42755;DHT22;28407;51.830;5.684;2023-03-20T12:25:34;11.40;75.80
42755;DHT22;28407;51.830;5.684;2023-03-20T12:27:39;11.40;75.90
42755;DHT22;28407;51.830;5.684;2023-03-20T12:29:49;11.40;75.80
42755;DHT22;28407;51.830;5.684;2023-03-20T12:32:02;11.50;76.00
42755;DHT22;28407;51.830;5.684;2023-03-20T12:34:06;11.50;76.00
42755;DHT22;28407;51.830;5.684;2023-03-20T12:36:16;11.50;76.00
42755;DHT22;28407;51.830;5.684;2023-03-20T12:38:25;11.50;76.00
42755;DHT22;28407;51.830;5.684;2023-03-20T12:40:36;11.40;76.00
42755;DHT22;28407;51.830;5.684;2023-03-20T12:42:46;11.40;76.10
42755;DHT22;28407;51.830;5.684;2023-03-20T12:45:03;11.50;76.20
42755;DHT22;28407;51.830;5.684;2023-03-20T12:47:17;11.50;76.20
42755;DHT22;28407;51.830;5.684;2023-03-20T12:49:41;11.50;76.30
42755;DHT22;28407;51.830;5.684;2023-03-20T12:56:43;11.50;77.00
42755;DHT22;28407;51.830;5.684;2023-03-20T13:01:19;11.60;76.40
42755;DHT22;28407;51.830;5.684;2023-03-20T13:10:22;11.60;76.40
42755;DHT22;28407;51.830;5.684;2023-03-20T13:12:39;11.60;76.30
42755;DHT22;28407;51.830;5.684;2023-03-20T13:16:06;11.60;76.40
42755;DHT22;28407;51.830;5.684;2023-03-20T13:18:02;11.70;76.40
42755;DHT22;28407;51.830;5.684;2023-03-20T13:26:56;11.60;76.50
42755;DHT22;28407;51.830;5.684;2023-03-20T13:29:51;11.60;76.60
42755;DHT22;28407;51.830;5.684;2023-03-20T13:31:44;11.50;76.60
42755;DHT22;28407;51.830;5.684;2023-03-20T13:33:49;11.60;76.60
42755;DHT22;28407;51.830;5.684;2023-03-20T13:36:04;11.60;76.60
42755;DHT22;28407;51.830;5.684;2023-03-20T13:38:18;11.60;76.50
42755;DHT22;28407;51.830;5.684;2023-03-20T13:40:29;11.50;76.50
42755;DHT22;28407;51.830;5.684;2023-03-20T13:42:44;11.50;76.50
42755;DHT22;28407;51.830;5.684;2023-03-20T13:44:48;11.50;76.60
42755;DHT22;28407;51.830;5.684;2023-03-20T13:47:04;11.50;76.60
42755;DHT22;28407;51.830;5.684;2023-03-20T13:49:21;11.50;76.80
42755;DHT22;28407;51.830;5.684;2023-03-20T13:51:29;11.50;77.00
42755;DHT22;28407;51.830;5.684;2023-03-20T13:53:54;11.50;77.00
42755;DHT22;28407;51.830;5.684;2023-03-20T13:56:07;11.50;77.30
42755;DHT22;28407;51.830;5.684;2023-03-20T14:00:48;11.40;77.40
42755;DHT22;28407;51.830;5.684;2023-03-20T14:05:17;11.40;77.60
42755;DHT22;28407;51.830;5.684;2023-03-20T14:07:35;11.40;77.60
42755;DHT22;28407;51.830;5.684;2023-03-20T14:09:37;11.40;77.70
42755;DHT22;28407;51.830;5.684;2023-03-20T14:11:37;11.40;77.80
42755;DHT22;28407;51.830;5.684;2023-03-20T14:13:41;11.40;77.80
42755;DHT22;28407;51.830;5.684;2023-03-20T14:15:54;11.40;77.90
42755;DHT22;28407;51.830;5.684;2023-03-20T14:17:55;11.40;78.00
42755;DHT22;28407;51.830;5.684;2023-03-20T14:19:57;11.40;78.10
42755;DHT22;28407;51.830;5.684;2023-03-20T14:22:33;11.40;78.10
42755;DHT22;28407;51.830;5.684;2023-03-20T14:24:35;11.40;78.20
42755;DHT22;28407;51.830;5.684;2023-03-20T14:26:38;11.50;78.30
42755;DHT22;28407;51.830;5.684;2023-03-20T14:29:01;11.40;78.30
42755;DHT22;28407;51.830;5.684;2023-03-20T14:31:30;11.40;78.50
42755;DHT22;28407;51.830;5.684;2023-03-20T14:33:42;11.40;78.60
42755;DHT22;28407;51.830;5.684;2023-03-20T14:35:51;11.30;78.70
42755;DHT22;28407;51.830;5.684;2023-03-20T14:38:34;11.30;78.90
42755;DHT22;28407;51.830;5.684;2023-03-20T14:45:40;11.30;79.20
42755;DHT22;28407;51.830;5.684;2023-03-20T14:49:52;11.30;79.30
42755;DHT22;28407;51.830;5.684;2023-03-20T14:54:29;11.30;79.50
42755;DHT22;28407;51.830;5.684;2023-03-20T14:56:33;11.30;79.40
42755;DHT22;28407;51.830;5.684;2023-03-20T15:00:45;11.30;79.60
42755;DHT22;28407;51.830;5.684;2023-03-20T15:02:49;11.30;79.70
42755;DHT22;28407;51.830;5.684;2023-03-20T15:04:50;11.30;79.70
42755;DHT22;28407;51.830;5.684;2023-03-20T15:09:10;11.30;79.90
42755;DHT22;28407;51.830;5.684;2023-03-20T15:11:12;11.40;79.90
42755;DHT22;28407;51.830;5.684;2023-03-20T15:13:15;11.40;79.90